createdAt,value
2023-04-22T04:29:23.941Z,11.40
2023-04-22T08:56:00.518Z,4.00
2023-04-22T08:58:31.077Z,4.17
2023-04-22T09:01:03.092Z,4.43
2023-04-22T09:03:32.571Z,4.70
2023-04-22T09:06:02.232Z,4.63
2023-04-22T09:08:31.831Z,4.20
2023-04-22T09:11:01.433Z,3.93
2023-04-22T09:13:30.880Z,4.20
2023-04-22T09:16:02.773Z,3.65
2023-04-22T09:18:32.112Z,4.10
2023-04-22T09:21:01.354Z,3.70
2023-04-22T09:23:31.115Z,3.88
2023-04-22T09:26:00.474Z,4.00
2023-04-22T09:28:29.841Z,4.20
2023-04-22T09:31:03.139Z,3.70
2023-04-22T09:33:36.462Z,3.80
2023-04-22T09:36:07.498Z,4.72
2023-04-22T09:38:36.872Z,3.33
2023-04-22T09:41:12.510Z,3.72
2023-04-22T09:43:42.237Z,4.07
2023-04-22T09:46:12.575Z,3.67
2023-04-22T09:48:47.626Z,3.88
2023-04-22T09:51:18.847Z,3.63
2023-04-22T09:53:48.360Z,3.80
2023-04-22T09:56:17.662Z,3.90
2023-04-22T09:58:46.959Z,4.25
2023-04-22T10:01:16.249Z,3.50
2023-04-22T10:03:48.197Z,4.15
2023-04-22T10:06:17.525Z,3.58
2023-04-22T10:08:47.119Z,3.95
2023-04-22T10:11:16.428Z,2.97
2023-04-22T10:13:46.081Z,3.63
2023-04-22T10:16:15.537Z,3.70
2023-04-22T10:18:44.971Z,3.65
2023-04-22T10:21:17.004Z,3.47
2023-04-22T10:23:48.666Z,3.92
2023-04-22T10:26:32.886Z,3.60
2023-04-22T10:29:02.192Z,3.42
2023-04-22T10:31:31.660Z,3.55
2023-04-22T10:34:11.540Z,3.35
2023-04-22T10:36:57.416Z,3.58
2023-04-22T10:39:29.760Z,3.38
2023-04-22T10:42:17.329Z,3.85
2023-04-22T10:44:51.073Z,3.10
2023-04-22T10:47:30.365Z,3.70
2023-04-22T10:50:13.014Z,3.65
2023-04-22T10:55:14.212Z,2.90
2023-04-22T10:57:44.478Z,3.00
2023-04-22T11:00:21.242Z,3.10
2023-04-22T11:02:56.432Z,3.30
2023-04-22T11:05:27.590Z,2.92
2023-04-22T11:07:57.804Z,3.03
2023-04-22T11:10:37.493Z,3.22
2023-04-22T11:13:08.196Z,3.13
2023-04-22T11:15:38.403Z,3.13
2023-04-22T11:18:11.225Z,3.47
2023-04-22T11:20:40.572Z,3.00
2023-04-22T11:23:09.902Z,2.83
2023-04-22T11:25:41.916Z,3.35
2023-04-22T11:28:11.222Z,3.17
2023-04-22T11:30:40.513Z,2.90
2023-04-22T11:33:09.818Z,3.58
2023-04-22T11:35:39.766Z,3.22
2023-04-22T11:38:09.186Z,3.60
2023-04-22T11:40:40.790Z,3.10
2023-04-22T11:43:14.223Z,2.92
2023-04-22T11:45:43.522Z,3.03
2023-04-22T11:48:13.928Z,3.50
2023-04-22T11:50:44.277Z,3.35
2023-04-22T11:53:17.829Z,3.13
2023-04-22T11:55:51.018Z,3.20
2023-04-22T11:58:28.590Z,3.55
2023-04-22T12:00:58.878Z,3.65
2023-04-22T12:03:29.519Z,3.60
2023-04-22T12:06:00.535Z,3.05
2023-04-22T12:08:34.445Z,3.15
2023-04-22T12:11:05.054Z,3.03
2023-04-22T12:13:43.162Z,3.20
2023-04-22T12:16:13.908Z,3.60
2023-04-22T12:18:44.089Z,3.45
2023-04-22T12:21:14.163Z,3.40
2023-04-22T12:23:44.158Z,3.22
2023-04-22T12:26:13.608Z,3.47
2023-04-22T12:28:46.141Z,3.65
2023-04-22T12:31:17.156Z,3.63
2023-04-22T12:33:47.396Z,3.70
2023-04-22T12:36:16.751Z,4.18
2023-04-22T12:38:46.245Z,4.53
2023-04-22T12:41:16.000Z,3.95
2023-04-22T12:43:48.121Z,3.92
2023-04-22T12:46:17.625Z,3.50
2023-04-22T12:48:47.002Z,3.05
2023-04-22T12:51:16.299Z,2.83
2023-04-22T12:53:45.542Z,3.08
2023-04-22T12:56:14.907Z,3.35
2023-04-22T12:58:44.310Z,4.20
2023-04-22T13:01:16.197Z,4.15
2023-04-22T13:03:45.969Z,3.50
2023-04-22T13:06:15.394Z,3.00
2023-04-22T13:08:44.821Z,2.85
2023-04-22T13:11:14.380Z,3.08
2023-04-22T13:13:43.676Z,3.40
2023-04-22T13:16:13.062Z,2.80
2023-04-22T13:18:45.003Z,3.25
2023-04-22T13:21:15.393Z,2.90
2023-04-22T13:23:45.035Z,2.65
2023-04-22T13:26:14.406Z,2.67
2023-04-22T13:28:43.683Z,2.38
2023-04-22T13:31:13.085Z,2.47
2023-04-22T13:33:45.244Z,3.00
2023-04-22T13:36:14.615Z,2.70
2023-04-22T13:38:43.913Z,2.78
2023-04-22T13:41:13.285Z,3.10
2023-04-22T13:43:42.560Z,2.70
2023-04-22T13:46:11.968Z,2.90
2023-04-22T13:48:41.294Z,3.13
2023-04-22T13:51:13.134Z,2.70
2023-04-22T13:53:42.501Z,2.55
2023-04-22T13:56:11.774Z,2.60
2023-04-22T13:58:42.781Z,2.70
2023-04-22T14:01:12.193Z,2.70
2023-04-22T14:03:41.561Z,2.42
2023-04-22T14:06:13.488Z,2.55
2023-04-22T14:08:43.242Z,3.10
2023-04-22T14:11:12.540Z,2.50
2023-04-22T14:13:41.932Z,2.65
2023-04-22T14:16:12.134Z,2.50
2023-04-22T14:18:41.943Z,2.60
2023-04-22T14:21:14.242Z,2.70
2023-04-22T14:23:44.564Z,2.88
2023-04-22T14:26:14.637Z,2.90
2023-04-22T14:28:44.275Z,2.55
2023-04-22T14:31:15.285Z,2.60
2023-04-22T14:33:44.604Z,2.40
2023-04-22T14:36:16.446Z,2.90
2023-04-22T14:38:46.116Z,2.45
2023-04-22T14:41:15.534Z,3.03
2023-04-22T14:43:44.774Z,3.05
2023-04-22T14:46:14.047Z,2.80
2023-04-22T14:48:43.344Z,2.70
2023-04-22T14:51:12.692Z,2.95
2023-04-22T14:53:44.562Z,2.83
2023-04-22T15:26:16.610Z,3.50
2023-04-22T15:28:45.876Z,4.38
2023-04-22T15:31:15.155Z,3.83
2023-04-22T15:33:44.728Z,3.53
2023-04-22T15:36:17.305Z,4.15
2023-04-22T16:33:52.812Z,2.88
2023-04-22T17:13:56.060Z,2.40
2023-04-22T17:16:25.467Z,2.58
2023-04-22T17:18:54.782Z,2.65
2023-04-22T17:21:24.225Z,2.53
2023-04-22T17:23:53.560Z,2.80
2023-04-22T17:26:25.379Z,2.85
2023-04-22T17:28:54.650Z,2.78
2023-04-22T17:31:25.152Z,2.70
2023-04-22T17:33:54.965Z,2.85
2023-04-22T17:36:24.235Z,2.60
2023-04-22T17:38:53.489Z,2.50
2023-04-22T17:41:25.322Z,2.38
2023-04-22T17:43:55.032Z,2.83
